sensor_id;sensor_type;location;lat;lon;timestamp;pressure;altitude;pressure_sealevel;temperature;humidity
30682;BME280;17439;48.092;11.842;2024-02-21T00:00:35;96432.28;;;6.50;71.54
30682;BME280;17439;48.092;11.842;2024-02-21T00:03:02;96436.34;;;6.52;71.84
30682;BME280;17439;48.092;11.842;2024-02-21T00:05:28;96429.06;;;6.53;71.63
30682;BME280;17439;48.092;11.842;2024-02-21T00:07:57;96428.53;;;6.56;71.74
30682;BME280;17439;48.092;11.842;2024-02-21T00:10:24;96418.56;;;6.57;71.50
30682;BME280;17439;48.092;11.842;2024-02-21T00:12:51;96421.56;;;6.60;71.70
30682;BME280;17439;48.092;11.842;2024-02-21T00:15:18;96424.00;;;6.62;71.49
30682;BME280;17439;48.092;11.842;2024-02-21T00:17:45;96412.94;;;6.63;71.83
30682;BME280;17439;48.092;11.842;2024-02-21T00:20:12;96417.28;;;6.64;71.67
30682;BME280;17439;48.092;11.842;2024-02-21T00:22:38;96416.47;;;6.64;71.79
30682;BME280;17439;48.092;11.842;2024-02-21T00:25:05;96408.91;;;6.66;71.54
30682;BME280;17439;48.092;11.842;2024-02-21T00:27:32;96401.63;;;6.66;71.76
30682;BME280;17439;48.092;11.842;2024-02-21T00:29:59;96401.63;;;6.66;71.24
30682;BME280;17439;48.092;11.842;2024-02-21T00:32:26;96408.66;;;6.67;71.44
30682;BME280;17439;48.092;11.842;2024-02-21T00:34:55;96404.06;;;6.68;71.30
30682;BME280;17439;48.092;11.842;2024-02-21T00:37:22;96401.94;;;6.70;71.39
30682;BME280;17439;48.092;11.842;2024-02-21T00:39:49;96402.75;;;6.70;71.34
30682;BME280;17439;48.092;11.842;2024-02-21T00:42:15;96398.16;;;6.71;71.17
30682;BME280;17439;48.092;11.842;2024-02-21T00:44:42;96399.78;;;6.72;71.29
30682;BME280;17439;48.092;11.842;2024-02-21T00:47:10;96400.59;;;6.72;70.97
30682;BME280;17439;48.092;11.842;2024-02-21T00:49:36;96393.34;;;6.73;71.06
30682;BME280;17439;48.092;11.842;2024-02-21T00:52:03;96389.56;;;6.74;70.95
30682;BME280;17439;48.092;11.842;2024-02-21T00:54:30;96392.25;;;6.74;70.70
30682;BME280;17439;48.092;11.842;2024-02-21T00:57:13;96385.25;;;6.73;70.65
30682;BME280;17439;48.092;11.842;2024-02-21T00:59:39;96384.41;;;6.72;70.77
30682;BME280;17439;48.092;11.842;2024-02-21T01:02:06;96382.00;;;6.71;70.23
30682;BME280;17439;48.092;11.842;2024-02-21T01:04:34;96383.09;;;6.70;69.95
30682;BME280;17439;48.092;11.842;2024-02-21T01:07:01;96385.22;;;6.68;70.58
30682;BME280;17439;48.092;11.842;2024-02-21T01:09:27;96374.44;;;6.68;70.94
30682;BME280;17439;48.092;11.842;2024-02-21T01:11:54;96383.59;;;6.67;71.06
30682;BME280;17439;48.092;11.842;2024-02-21T01:14:21;96379.03;;;6.67;71.05
30682;BME280;17439;48.092;11.842;2024-02-21T01:16:48;96379.81;;;6.68;71.16
30682;BME280;17439;48.092;11.842;2024-02-21T01:19:15;96385.22;;;6.68;71.31
30682;BME280;17439;48.092;11.842;2024-02-21T01:21:41;96384.16;;;6.69;71.34
30682;BME280;17439;48.092;11.842;2024-02-21T01:24:08;96383.88;;;6.70;71.26
30682;BME280;17439;48.092;11.842;2024-02-21T01:26:35;96373.91;;;6.71;71.05
30682;BME280;17439;48.092;11.842;2024-02-21T01:29:01;96377.16;;;6.73;71.31
30682;BME280;17439;48.092;11.842;2024-02-21T01:31:29;96369.63;;;6.75;71.08
30682;BME280;17439;48.092;11.842;2024-02-21T01:33:55;96360.75;;;6.75;71.16
30682;BME280;17439;48.092;11.842;2024-02-21T01:36:22;96365.88;;;6.76;71.40
30682;BME280;17439;48.092;11.842;2024-02-21T01:38:49;96346.16;;;6.76;71.13
30682;BME280;17439;48.092;11.842;2024-02-21T01:41:15;96349.69;;;6.76;70.77
30682;BME280;17439;48.092;11.842;2024-02-21T01:43:42;96352.13;;;6.78;71.18
30682;BME280;17439;48.092;11.842;2024-02-21T01:46:09;96349.97;;;6.80;71.11
30682;BME280;17439;48.092;11.842;2024-02-21T01:48:36;96348.06;;;6.80;71.00
30682;BME280;17439;48.092;11.842;2024-02-21T01:51:04;96349.16;;;6.79;70.58
30682;BME280;17439;48.092;11.842;2024-02-21T01:53:35;96338.38;;;6.79;68.70
30682;BME280;17439;48.092;11.842;2024-02-21T01:56:03;96340.00;;;6.80;70.94
30682;BME280;17439;48.092;11.842;2024-02-21T01:58:33;96329.22;;;6.80;70.79
30682;BME280;17439;48.092;11.842;2024-02-21T02:01:01;96339.72;;;6.82;71.11
30682;BME280;17439;48.092;11.842;2024-02-21T02:03:28;96330.84;;;6.81;71.18
30682;BME280;17439;48.092;11.842;2024-02-21T02:05:55;96333.28;;;6.83;71.39
30682;BME280;17439;48.092;11.842;2024-02-21T02:08:22;96331.38;;;6.83;71.40
30682;BME280;17439;48.092;11.842;2024-02-21T02:10:49;96316.00;;;6.84;71.26
30682;BME280;17439;48.092;11.842;2024-02-21T02:13:16;96319.53;;;6.84;70.93
30682;BME280;17439;48.092;11.842;2024-02-21T02:15:47;96324.91;;;6.84;70.61
30682;BME280;17439;48.092;11.842;2024-02-21T02:18:15;96319.53;;;6.84;70.46
30682;BME280;17439;48.092;11.842;2024-02-21T02:20:46;96307.91;;;6.84;67.75
30682;BME280;17439;48.092;11.842;2024-02-21T02:23:26;96307.38;;;6.82;65.36
30682;BME280;17439;48.092;11.842;2024-02-21T02:25:54;96302.53;;;6.84;70.56
30682;BME280;17439;48.092;11.842;2024-02-21T02:28:21;96303.34;;;6.84;70.76
30682;BME280;17439;48.092;11.842;2024-02-21T02:30:49;96297.97;;;6.84;70.61
30682;BME280;17439;48.092;11.842;2024-02-21T02:33:16;96304.94;;;6.85;71.14
30682;BME280;17439;48.092;11.842;2024-02-21T02:35:43;96294.75;;;6.87;71.38
30682;BME280;17439;48.092;11.842;2024-02-21T02:38:09;96281.00;;;6.89;71.35
30682;BME280;17439;48.092;11.842;2024-02-21T02:40:38;96278.31;;;6.89;70.69
30682;BME280;17439;48.092;11.842;2024-02-21T02:43:04;96274.25;;;6.92;71.10
30682;BME280;17439;48.092;11.842;2024-02-21T02:45:32;96273.19;;;6.93;71.28
30682;BME280;17439;48.092;11.842;2024-02-21T02:47:59;96271.28;;;6.93;71.16
30682;BME280;17439;48.092;11.842;2024-02-21T02:50:27;96266.72;;;6.94;70.83
30682;BME280;17439;48.092;11.842;2024-02-21T02:52:55;96268.06;;;6.96;70.46
30682;BME280;17439;48.092;11.842;2024-02-21T02:55:22;96258.06;;;6.97;70.83
30682;BME280;17439;48.092;11.842;2024-02-21T02:57:49;96266.16;;;6.97;70.83
30682;BME280;17439;48.092;11.842;2024-02-21T03:00:16;96261.31;;;6.99;70.57
30682;BME280;17439;48.092;11.842;2024-02-21T03:02:46;96261.84;;;6.96;67.75
30682;BME280;17439;48.092;11.842;2024-02-21T03:05:21;96251.06;;;6.96;66.97
30682;BME280;17439;48.092;11.842;2024-02-21T03:07:48;96244.59;;;6.97;70.40
30682;BME280;17439;48.092;11.842;2024-02-21T03:10:16;96244.59;;;6.97;70.47
30682;BME280;17439;48.092;11.842;2024-02-21T03:12:44;96247.28;;;6.97;70.46
30682;BME280;17439;48.092;11.842;2024-02-21T03:15:12;96251.06;;;6.96;69.60
30682;BME280;17439;48.092;11.842;2024-02-21T03:17:39;96240.28;;;6.96;70.07
30682;BME280;17439;48.092;11.842;2024-02-21T03:20:06;96245.69;;;6.96;70.12
30682;BME280;17439;48.092;11.842;2024-02-21T03:22:33;96241.09;;;6.96;70.29
30682;BME280;17439;48.092;11.842;2024-02-21T03:25:00;96243.53;;;6.98;70.44
30682;BME280;17439;48.092;11.842;2024-02-21T03:27:27;96244.88;;;7.00;70.40
30682;BME280;17439;48.092;11.842;2024-02-21T03:29:54;96244.63;;;7.02;70.54
30682;BME280;17439;48.092;11.842;2024-02-21T03:32:20;96235.44;;;7.03;70.46
30682;BME280;17439;48.092;11.842;2024-02-21T03:34:47;96247.84;;;7.04;70.28
30682;BME280;17439;48.092;11.842;2024-02-21T03:37:14;96244.09;;;7.05;70.38
30682;BME280;17439;48.092;11.842;2024-02-21T03:39:41;96254.03;;;7.04;70.09
30682;BME280;17439;48.092;11.842;2024-02-21T03:42:08;96249.47;;;7.05;70.13
30682;BME280;17439;48.092;11.842;2024-02-21T03:44:34;96252.69;;;7.07;70.36
30682;BME280;17439;48.092;11.842;2024-02-21T03:47:01;96233.56;;;7.08;70.63
30682;BME280;17439;48.092;11.842;2024-02-21T03:49:28;96241.38;;;7.10;70.58
30682;BME280;17439;48.092;11.842;2024-02-21T03:51:55;96236.53;;;7.12;70.59
30682;BME280;17439;48.092;11.842;2024-02-21T03:54:23;96239.22;;;7.12;70.92
30682;BME280;17439;48.092;11.842;2024-02-21T03:56:49;96235.44;;;7.13;70.97
30682;BME280;17439;48.092;11.842;2024-02-21T03:59:16;96239.47;;;7.16;71.02
30682;BME280;17439;48.092;11.842;2024-02-21T04:01:43;96241.09;;;7.17;70.72
30682;BME280;17439;48.092;11.842;2024-02-21T04:04:10;96236.50;;;7.17;70.96
30682;BME280;17439;48.092;11.842;2024-02-21T04:06:46;96237.34;;;7.18;67.42
30682;BME280;17439;48.092;11.842;2024-02-21T04:09:12;96227.88;;;7.20;70.96
30682;BME280;17439;48.092;11.842;2024-02-21T04:11:39;96230.59;;;7.20;70.88
30682;BME280;17439;48.092;11.842;2024-02-21T04:14:06;96232.22;;;7.21;70.79
30682;BME280;17439;48.092;11.842;2024-02-21T04:16:34;96232.22;;;7.21;70.21
30682;BME280;17439;48.092;11.842;2024-02-21T04:19:01;96228.97;;;7.14;65.47
30682;BME280;17439;48.092;11.842;2024-02-21T04:21:27;96226.28;;;7.19;70.66
30682;BME280;17439;48.092;11.842;2024-02-21T04:23:54;96217.38;;;7.19;70.31
30682;BME280;17439;48.092;11.842;2024-02-21T04:26:21;96219.25;;;7.18;70.37
30682;BME280;17439;48.092;11.842;2024-02-21T04:28:48;96223.03;;;7.17;70.37
30682;BME280;17439;48.092;11.842;2024-02-21T04:31:14;96216.03;;;7.16;70.23
30682;BME280;17439;48.092;11.842;2024-02-21T04:33:41;96204.69;;;7.14;69.99
30682;BME280;17439;48.092;11.842;2024-02-21T04:36:08;96206.59;;;7.14;70.17
30682;BME280;17439;48.092;11.842;2024-02-21T04:38:35;96213.88;;;7.13;70.15
30682;BME280;17439;48.092;11.842;2024-02-21T04:41:01;96199.88;;;7.11;69.89
30682;BME280;17439;48.092;11.842;2024-02-21T04:43:28;96205.53;;;7.10;69.96
30682;BME280;17439;48.092;11.842;2024-02-21T04:45:55;96196.63;;;7.09;70.20
30682;BME280;17439;48.092;11.842;2024-02-21T04:48:22;96200.41;;;7.08;70.25
30682;BME280;17439;48.092;11.842;2024-02-21T04:50:48;96195.81;;;7.08;70.32
30682;BME280;17439;48.092;11.842;2024-02-21T04:53:15;96188.78;;;7.07;70.30
30682;BME280;17439;48.092;11.842;2024-02-21T04:55:42;96181.81;;;7.06;70.32
30682;BME280;17439;48.092;11.842;2024-02-21T04:58:09;96179.09;;;7.06;70.07
30682;BME280;17439;48.092;11.842;2024-02-21T05:00:35;96173.97;;;7.05;70.13
30682;BME280;17439;48.092;11.842;2024-02-21T05:03:03;96176.13;;;7.03;69.82
30682;BME280;17439;48.092;11.842;2024-02-21T05:05:29;96171.25;;;7.00;69.28
30682;BME280;17439;48.092;11.842;2024-02-21T05:07:56;96178.28;;;6.96;69.25
30682;BME280;17439;48.092;11.842;2024-02-21T05:10:23;96171.53;;;6.93;69.02
30682;BME280;17439;48.092;11.842;2024-02-21T05:12:50;96162.66;;;6.87;68.83
30682;BME280;17439;48.092;11.842;2024-02-21T05:15:17;96158.88;;;6.83;68.66
30682;BME280;17439;48.092;11.842;2024-02-21T05:17:44;96156.97;;;6.79;68.36
30682;BME280;17439;48.092;11.842;2024-02-21T05:20:11;96151.06;;;6.71;68.18
30682;BME280;17439;48.092;11.842;2024-02-21T05:22:38;96147.53;;;6.66;68.26
30682;BME280;17439;48.092;11.842;2024-02-21T05:25:05;96144.06;;;6.60;68.68
30682;BME280;17439;48.092;11.842;2024-02-21T05:27:32;96137.03;;;6.54;68.46
30682;BME280;17439;48.092;11.842;2024-02-21T05:29:59;96137.84;;;6.49;68.73
30682;BME280;17439;48.092;11.842;2024-02-21T05:32:26;96128.66;;;6.45;68.76
30682;BME280;17439;48.092;11.842;2024-02-21T05:34:53;96126.78;;;6.41;69.11
30682;BME280;17439;48.092;11.842;2024-02-21T05:37:20;96125.44;;;6.38;69.18
30682;BME280;17439;48.092;11.842;2024-02-21T05:39:46;96124.34;;;6.34;69.16
30682;BME280;17439;48.092;11.842;2024-02-21T05:42:13;96131.06;;;6.31;69.21
30682;BME280;17439;48.092;11.842;2024-02-21T05:44:40;96141.56;;;6.28;69.25
30682;BME280;17439;48.092;11.842;2024-02-21T05:47:07;96127.84;;;6.24;69.45
30682;BME280;17439;48.092;11.842;2024-02-21T05:49:33;96125.41;;;6.23;69.54
30682;BME280;17439;48.092;11.842;2024-02-21T05:52:00;96116.78;;;6.21;69.84
30682;BME280;17439;48.092;11.842;2024-02-21T05:54:27;96113.53;;;6.18;70.13
30682;BME280;17439;48.092;11.842;2024-02-21T05:56:53;96107.34;;;6.18;70.24
30682;BME280;17439;48.092;11.842;2024-02-21T05:59:20;96092.00;;;6.18;70.49
30682;BME280;17439;48.092;11.842;2024-02-21T06:01:57;96098.22;;;6.19;68.19
30682;BME280;17439;48.092;11.842;2024-02-21T06:04:25;96099.00;;;6.20;70.78
30682;BME280;17439;48.092;11.842;2024-02-21T06:06:51;96096.06;;;6.21;71.08
30682;BME280;17439;48.092;11.842;2024-02-21T06:09:18;96100.09;;;6.24;70.92
30682;BME280;17439;48.092;11.842;2024-02-21T06:11:45;96097.94;;;6.26;71.23
30682;BME280;17439;48.092;11.842;2024-02-21T06:14:12;96087.72;;;6.28;71.23
30682;BME280;17439;48.092;11.842;2024-02-21T06:16:39;96087.44;;;6.29;71.21
30682;BME280;17439;48.092;11.842;2024-02-21T06:19:06;96093.09;;;6.33;71.06
30682;BME280;17439;48.092;11.842;2024-02-21T06:21:36;96088.28;;;6.35;70.94
30682;BME280;17439;48.092;11.842;2024-02-21T06:24:03;96094.19;;;6.37;70.95
30682;BME280;17439;48.092;11.842;2024-02-21T06:26:30;96085.03;;;6.38;70.68
30682;BME280;17439;48.092;11.842;2024-02-21T06:28:57;96083.16;;;6.39;70.44
30682;BME280;17439;48.092;11.842;2024-02-21T06:31:24;96092.03;;;6.39;70.45
30682;BME280;17439;48.092;11.842;2024-02-21T06:33:51;96099.31;;;6.39;70.20
30682;BME280;17439;48.092;11.842;2024-02-21T06:36:18;96095.81;;;6.38;69.71
30682;BME280;17439;48.092;11.842;2024-02-21T06:38:44;96085.56;;;6.35;69.71
30682;BME280;17439;48.092;11.842;2024-02-21T06:41:18;96093.94;;;6.33;67.29
30682;BME280;17439;48.092;11.842;2024-02-21T06:43:46;96086.09;;;6.32;70.22
30682;BME280;17439;48.092;11.842;2024-02-21T06:46:26;96079.38;;;6.29;66.97
30682;BME280;17439;48.092;11.842;2024-02-21T06:48:53;96087.19;;;6.31;70.63
30682;BME280;17439;48.092;11.842;2024-02-21T06:51:20;96085.00;;;6.33;70.85
30682;BME280;17439;48.092;11.842;2024-02-21T06:53:47;96081.25;;;6.34;70.92
30682;BME280;17439;48.092;11.842;2024-02-21T06:56:13;96086.09;;;6.37;71.65
30682;BME280;17439;48.092;11.842;2024-02-21T06:58:43;96092.59;;;6.41;71.93
30682;BME280;17439;48.092;11.842;2024-02-21T07:01:10;96093.38;;;6.47;72.45
30682;BME280;17439;48.092;11.842;2024-02-21T07:03:37;96090.41;;;6.53;73.01
30682;BME280;17439;48.092;11.842;2024-02-21T07:06:04;96087.22;;;6.62;73.15
30682;BME280;17439;48.092;11.842;2024-02-21T07:08:31;96087.47;;;6.70;73.58
30682;BME280;17439;48.092;11.842;2024-02-21T07:10:58;96076.66;;;6.81;73.68
30682;BME280;17439;48.092;11.842;2024-02-21T07:13:25;96068.06;;;6.89;73.48
30682;BME280;17439;48.092;11.842;2024-02-21T07:15:51;96073.69;;;6.98;73.42
30682;BME280;17439;48.092;11.842;2024-02-21T07:18:18;96073.94;;;7.06;73.37
30682;BME280;17439;48.092;11.842;2024-02-21T07:20:45;96074.97;;;7.16;73.43
30682;BME280;17439;48.092;11.842;2024-02-21T07:23:12;96072.81;;;7.23;73.21
30682;BME280;17439;48.092;11.842;2024-02-21T07:25:39;96073.34;;;7.30;73.11
30682;BME280;17439;48.092;11.842;2024-02-21T07:28:06;96074.94;;;7.36;72.91
30682;BME280;17439;48.092;11.842;2024-02-21T07:30:32;96068.16;;;7.44;72.93
30682;BME280;17439;48.092;11.842;2024-02-21T07:32:59;96076.78;;;7.51;72.78
30682;BME280;17439;48.092;11.842;2024-02-21T07:35:26;96076.75;;;7.56;73.17
30682;BME280;17439;48.092;11.842;2024-02-21T07:37:53;96074.03;;;7.61;72.29
30682;BME280;17439;48.092;11.842;2024-02-21T07:40:19;96079.94;;;7.69;72.39
30682;BME280;17439;48.092;11.842;2024-02-21T07:42:46;96061.03;;;7.74;72.77
30682;BME280;17439;48.092;11.842;2024-02-21T07:45:17;96060.44;;;7.82;73.38
30682;BME280;17439;48.092;11.842;2024-02-21T07:47:44;96060.97;;;7.89;73.44
30682;BME280;17439;48.092;11.842;2024-02-21T07:50:11;96052.28;;;7.97;73.38
30682;BME280;17439;48.092;11.842;2024-02-21T07:52:37;96050.03;;;8.05;73.17
30682;BME280;17439;48.092;11.842;2024-02-21T07:55:04;96043.53;;;8.11;72.81
30682;BME280;17439;48.092;11.842;2024-02-21T07:57:31;96040.50;;;8.17;72.93
30682;BME280;17439;48.092;11.842;2024-02-21T07:59:58;96042.91;;;8.24;72.80
30682;BME280;17439;48.092;11.842;2024-02-21T08:02:25;96034.78;;;8.29;72.67
30682;BME280;17439;48.092;11.842;2024-02-21T08:04:51;96030.94;;;8.35;72.62
30682;BME280;17439;48.092;11.842;2024-02-21T08:07:18;96023.31;;;8.43;72.89
30682;BME280;17439;48.092;11.842;2024-02-21T08:09:45;96021.41;;;8.48;72.93
30682;BME280;17439;48.092;11.842;2024-02-21T08:12:12;96020.28;;;8.55;72.68
30682;BME280;17439;48.092;11.842;2024-02-21T08:14:38;95998.31;;;8.61;72.02
30682;BME280;17439;48.092;11.842;2024-02-21T08:17:05;95988.56;;;8.65;71.84
30682;BME280;17439;48.092;11.842;2024-02-21T08:19:32;95985.81;;;8.70;71.21
30682;BME280;17439;48.092;11.842;2024-02-21T08:21:59;95975.78;;;8.71;70.67
30682;BME280;17439;48.092;11.842;2024-02-21T08:24:25;95970.91;;;8.73;70.34
30682;BME280;17439;48.092;11.842;2024-02-21T08:26:52;95975.50;;;8.73;70.21
30682;BME280;17439;48.092;11.842;2024-02-21T08:29:19;95966.59;;;8.72;70.15
30682;BME280;17439;48.092;11.842;2024-02-21T08:31:46;95968.75;;;8.70;70.22
30682;BME280;17439;48.092;11.842;2024-02-21T08:34:12;95969.59;;;8.70;70.24
30682;BME280;17439;48.092;11.842;2024-02-21T08:36:40;95961.47;;;8.70;69.92
30682;BME280;17439;48.092;11.842;2024-02-21T08:39:07;95957.16;;;8.69;70.06
30682;BME280;17439;48.092;11.842;2024-02-21T08:41:34;95964.19;;;8.70;70.04
30682;BME280;17439;48.092;11.842;2024-02-21T08:44:23;95964.19;;;8.70;69.03
30682;BME280;17439;48.092;11.842;2024-02-21T08:46:49;95959.78;;;8.75;70.49
30682;BME280;17439;48.092;11.842;2024-02-21T08:49:16;95954.94;;;8.77;70.58
30682;BME280;17439;48.092;11.842;2024-02-21T08:51:43;95957.06;;;8.80;70.55
30682;BME280;17439;48.092;11.842;2024-02-21T08:54:10;95961.91;;;8.83;70.69
30682;BME280;17439;48.092;11.842;2024-02-21T08:56:37;95965.13;;;8.85;70.71
30682;BME280;17439;48.092;11.842;2024-02-21T08:59:03;95966.97;;;8.89;71.10
30682;BME280;17439;48.092;11.842;2024-02-21T09:01:30;95967.97;;;8.94;71.18
30682;BME280;17439;48.092;11.842;2024-02-21T09:03:57;95957.41;;;8.97;71.22
30682;BME280;17439;48.092;11.842;2024-02-21T09:06:24;95966.25;;;9.03;71.25
30682;BME280;17439;48.092;11.842;2024-02-21T09:08:51;95961.91;;;9.07;71.60
30682;BME280;17439;48.092;11.842;2024-02-21T09:11:17;95958.84;;;9.14;71.67
30682;BME280;17439;48.092;11.842;2024-02-21T09:13:44;95957.16;;;9.18;71.74
30682;BME280;17439;48.092;11.842;2024-02-21T09:16:11;95957.63;;;9.25;71.97
30682;BME280;17439;48.092;11.842;2024-02-21T09:18:38;95964.28;;;9.33;72.15
30682;BME280;17439;48.092;11.842;2024-02-21T09:21:05;95963.13;;;9.39;71.78
30682;BME280;17439;48.092;11.842;2024-02-21T09:23:31;95966.28;;;9.46;71.99
30682;BME280;17439;48.092;11.842;2024-02-21T09:25:58;95971.03;;;9.54;72.06
30682;BME280;17439;48.092;11.842;2024-02-21T09:28:25;95970.69;;;9.61;72.06
30682;BME280;17439;48.092;11.842;2024-02-21T09:30:52;95968.13;;;9.70;72.19
30682;BME280;17439;48.092;11.842;2024-02-21T09:33:18;95970.16;;;9.78;71.91
30682;BME280;17439;48.092;11.842;2024-02-21T09:35:57;95975.25;;;9.85;71.11
30682;BME280;17439;48.092;11.842;2024-02-21T09:38:24;95970.75;;;9.94;71.25
30682;BME280;17439;48.092;11.842;2024-02-21T09:40:59;95972.00;;;10.02;67.56
30682;BME280;17439;48.092;11.842;2024-02-21T09:43:26;95954.28;;;10.09;70.74
30682;BME280;17439;48.092;11.842;2024-02-21T09:45:54;95961.22;;;10.15;69.12
30682;BME280;17439;48.092;11.842;2024-02-21T09:51:04;95958.56;;;10.29;69.79
30682;BME280;17439;48.092;11.842;2024-02-21T09:53:32;95956.28;;;10.37;69.82
30682;BME280;17439;48.092;11.842;2024-02-21T09:55:59;95953.19;;;10.43;70.02
30682;BME280;17439;48.092;11.842;2024-02-21T09:58:26;95952.00;;;10.49;69.75
30682;BME280;17439;48.092;11.842;2024-02-21T10:00:53;95939.19;;;10.55;69.52
30682;BME280;17439;48.092;11.842;2024-02-21T10:03:20;95942.81;;;10.64;69.01
30682;BME280;17439;48.092;11.842;2024-02-21T10:05:48;95944.84;;;10.73;68.98
30682;BME280;17439;48.092;11.842;2024-02-21T10:08:15;95946.06;;;10.80;69.50
30682;BME280;17439;48.092;11.842;2024-02-21T10:10:43;95945.34;;;10.88;68.89
30682;BME280;17439;48.092;11.842;2024-02-21T10:13:10;95943.31;;;10.94;68.27
30682;BME280;17439;48.092;11.842;2024-02-21T10:15:37;95944.84;;;11.00;68.10
30682;BME280;17439;48.092;11.842;2024-02-21T10:18:04;95931.16;;;11.05;67.70
30682;BME280;17439;48.092;11.842;2024-02-21T10:20:31;95931.59;;;11.13;67.78
30682;BME280;17439;48.092;11.842;2024-02-21T10:23:04;95925.25;;;11.17;62.31
30682;BME280;17439;48.092;11.842;2024-02-21T10:25:31;95918.91;;;11.22;67.33
30682;BME280;17439;48.092;11.842;2024-02-21T10:27:58;95911.75;;;11.26;67.28
30682;BME280;17439;48.092;11.842;2024-02-21T10:30:25;95906.72;;;11.33;67.77
30682;BME280;17439;48.092;11.842;2024-02-21T10:32:53;95906.31;;;11.40;66.64
30682;BME280;17439;48.092;11.842;2024-02-21T10:35:30;95910.34;;;11.42;60.54
30682;BME280;17439;48.092;11.842;2024-02-21T10:37:58;95907.19;;;11.49;67.84
30682;BME280;17439;48.092;11.842;2024-02-21T10:40:27;95907.56;;;11.56;66.52
30682;BME280;17439;48.092;11.842;2024-02-21T10:42:57;95904.75;;;11.61;64.91
30682;BME280;17439;48.092;11.842;2024-02-21T10:45:31;95906.25;;;11.68;59.31
30682;BME280;17439;48.092;11.842;2024-02-21T10:48:12;95902.81;;;11.76;58.22
30682;BME280;17439;48.092;11.842;2024-02-21T10:56:09;95880.19;;;12.03;58.70
30682;BME280;17439;48.092;11.842;2024-02-21T10:58:40;95868.72;;;12.15;66.31
30682;BME280;17439;48.092;11.842;2024-02-21T11:01:07;95856.28;;;12.14;63.31
30682;BME280;17439;48.092;11.842;2024-02-21T11:03:35;95861.31;;;12.29;67.75
30682;BME280;17439;48.092;11.842;2024-02-21T11:06:02;95847.78;;;12.38;65.57
30682;BME280;17439;48.092;11.842;2024-02-21T11:08:30;95839.31;;;12.48;66.83
30682;BME280;17439;48.092;11.842;2024-02-21T11:10:58;95837.44;;;12.58;64.15
30682;BME280;17439;48.092;11.842;2024-02-21T11:13:32;95831.75;;;12.68;62.31
30682;BME280;17439;48.092;11.842;2024-02-21T11:16:08;95822.81;;;12.76;60.62
30682;BME280;17439;48.092;11.842;2024-02-21T11:18:38;95813.06;;;12.84;65.79
30682;BME280;17439;48.092;11.842;2024-02-21T11:21:05;95808.75;;;12.92;65.04
30682;BME280;17439;48.092;11.842;2024-02-21T11:23:32;95806.06;;;13.00;64.56
30682;BME280;17439;48.092;11.842;2024-02-21T11:26:06;95801.75;;;13.08;57.56
30682;BME280;17439;48.092;11.842;2024-02-21T11:28:34;95790.38;;;13.15;64.43
30682;BME280;17439;48.092;11.842;2024-02-21T11:31:11;95785.59;;;13.20;56.69
30682;BME280;17439;48.092;11.842;2024-02-21T11:33:41;95771.50;;;13.27;60.32
30682;BME280;17439;48.092;11.842;2024-02-21T11:36:23;95770.41;;;13.37;61.24
30682;BME280;17439;48.092;11.842;2024-02-21T11:38:51;95763.81;;;13.47;65.50
30682;BME280;17439;48.092;11.842;2024-02-21T11:41:17;95747.00;;;13.53;64.13
30682;BME280;17439;48.092;11.842;2024-02-21T11:43:44;95752.75;;;13.60;62.90
30682;BME280;17439;48.092;11.842;2024-02-21T11:46:11;95751.94;;;13.69;61.13
30682;BME280;17439;48.092;11.842;2024-02-21T11:48:38;95742.63;;;13.78;62.91
30682;BME280;17439;48.092;11.842;2024-02-21T11:51:05;95741.00;;;13.86;62.72
30682;BME280;17439;48.092;11.842;2024-02-21T11:53:32;95733.28;;;13.97;63.56
30682;BME280;17439;48.092;11.842;2024-02-21T11:56:03;95731.34;;;14.06;62.85
30682;BME280;17439;48.092;11.842;2024-02-21T11:58:31;95719.94;;;14.13;61.16
30682;BME280;17439;48.092;11.842;2024-02-21T12:00:57;95711.69;;;14.22;61.98
30682;BME280;17439;48.092;11.842;2024-02-21T12:03:24;95719.03;;;14.30;62.07
30682;BME280;17439;48.092;11.842;2024-02-21T12:05:53;95710.69;;;14.35;58.41
30682;BME280;17439;48.092;11.842;2024-02-21T12:08:20;95706.16;;;14.39;59.47
30682;BME280;17439;48.092;11.842;2024-02-21T12:10:46;95691.88;;;14.42;58.11
30682;BME280;17439;48.092;11.842;2024-02-21T12:13:13;95693.28;;;14.48;59.39
30682;BME280;17439;48.092;11.842;2024-02-21T12:15:40;95688.78;;;14.52;59.93
30682;BME280;17439;48.092;11.842;2024-02-21T12:18:07;95691.31;;;14.58;60.70
30682;BME280;17439;48.092;11.842;2024-02-21T12:20:33;95691.47;;;14.61;60.33
30682;BME280;17439;48.092;11.842;2024-02-21T12:23:01;95683.31;;;14.52;45.70
30682;BME280;17439;48.092;11.842;2024-02-21T12:25:28;95674.44;;;14.64;59.62
30682;BME280;17439;48.092;11.842;2024-02-21T12:27:55;95672.97;;;14.67;58.70
30682;BME280;17439;48.092;11.842;2024-02-21T12:30:22;95675.84;;;14.71;59.48
30682;BME280;17439;48.092;11.842;2024-02-21T12:32:48;95667.00;;;14.74;59.19
30682;BME280;17439;48.092;11.842;2024-02-21T12:35:15;95667.44;;;14.76;58.15
30682;BME280;17439;48.092;11.842;2024-02-21T12:37:42;95653.47;;;14.77;57.93
30682;BME280;17439;48.092;11.842;2024-02-21T12:40:09;95646.44;;;14.76;56.77
30682;BME280;17439;48.092;11.842;2024-02-21T12:42:36;95638.72;;;14.78;58.45
30682;BME280;17439;48.092;11.842;2024-02-21T12:45:04;95639.16;;;14.80;57.78
30682;BME280;17439;48.092;11.842;2024-02-21T12:47:31;95633.03;;;14.83;57.29
30682;BME280;17439;48.092;11.842;2024-02-21T12:49:58;95627.25;;;14.85;57.78
30682;BME280;17439;48.092;11.842;2024-02-21T12:52:25;95625.47;;;14.89;58.22
30682;BME280;17439;48.092;11.842;2024-02-21T12:54:52;95611.16;;;14.92;58.58
30682;BME280;17439;48.092;11.842;2024-02-21T12:57:19;95608.88;;;14.94;57.49
30682;BME280;17439;48.092;11.842;2024-02-21T12:59:47;95597.34;;;14.88;56.34
30682;BME280;17439;48.092;11.842;2024-02-21T13:02:14;95597.75;;;14.99;58.42
30682;BME280;17439;48.092;11.842;2024-02-21T13:04:40;95587.28;;;15.01;58.35
30682;BME280;17439;48.092;11.842;2024-02-21T13:07:07;95583.75;;;15.01;57.07